sensor_id;sensor_type;location;lat;lon;timestamp;temperature;humidity
13684;DHT22;6914;53.552;9.908;2022-12-18T00:01:16;-4.50;99.90
13684;DHT22;6914;53.552;9.908;2022-12-18T00:03:43;-4.50;99.90
13684;DHT22;6914;53.552;9.908;2022-12-18T00:06:10;-5.20;99.90
13684;DHT22;6914;53.552;9.908;2022-12-18T00:08:39;-4.40;99.90
13684;DHT22;6914;53.552;9.908;2022-12-18T00:11:07;-4.40;99.90
13684;DHT22;6914;53.552;9.908;2022-12-18T00:13:35;-4.40;99.90
13684;DHT22;6914;53.552;9.908;2022-12-18T00:16:03;-4.30;99.90
13684;DHT22;6914;53.552;9.908;2022-12-18T00:18:32;-4.20;99.90
13684;DHT22;6914;53.552;9.908;2022-12-18T00:21:00;-4.40;99.90
13684;DHT22;6914;53.552;9.908;2022-12-18T00:23:27;-4.30;99.90
13684;DHT22;6914;53.552;9.908;2022-12-18T00:25:55;-4.30;99.90
13684;DHT22;6914;53.552;9.908;2022-12-18T00:28:25;-4.30;99.90
13684;DHT22;6914;53.552;9.908;2022-12-18T00:31:00;-4.30;99.90
13684;DHT22;6914;53.552;9.908;2022-12-18T00:33:27;-4.20;99.90
13684;DHT22;6914;53.552;9.908;2022-12-18T00:36:00;-4.00;99.90
13684;DHT22;6914;53.552;9.908;2022-12-18T00:38:27;-4.30;99.90
13684;DHT22;6914;53.552;9.908;2022-12-18T00:40:54;-4.30;99.90
13684;DHT22;6914;53.552;9.908;2022-12-18T00:43:21;-4.30;99.90
13684;DHT22;6914;53.552;9.908;2022-12-18T00:45:47;-4.20;99.90
13684;DHT22;6914;53.552;9.908;2022-12-18T00:48:14;-4.30;99.90
13684;DHT22;6914;53.552;9.908;2022-12-18T00:50:41;-4.30;99.90
13684;DHT22;6914;53.552;9.908;2022-12-18T00:53:10;-4.20;99.90
13684;DHT22;6914;53.552;9.908;2022-12-18T00:55:37;-4.30;99.90
13684;DHT22;6914;53.552;9.908;2022-12-18T00:58:05;-4.30;99.90
13684;DHT22;6914;53.552;9.908;2022-12-18T01:00:33;-4.20;99.90
13684;DHT22;6914;53.552;9.908;2022-12-18T01:03:00;-4.30;99.90
13684;DHT22;6914;53.552;9.908;2022-12-18T01:05:27;-4.30;99.90
13684;DHT22;6914;53.552;9.908;2022-12-18T01:07:54;-4.40;99.90
13684;DHT22;6914;53.552;9.908;2022-12-18T01:10:24;-4.40;99.90
13684;DHT22;6914;53.552;9.908;2022-12-18T01:12:52;-4.50;99.90
13684;DHT22;6914;53.552;9.908;2022-12-18T01:15:20;-4.50;99.90
13684;DHT22;6914;53.552;9.908;2022-12-18T01:17:46;-3.30;99.90
13684;DHT22;6914;53.552;9.908;2022-12-18T01:20:13;-4.60;99.90
13684;DHT22;6914;53.552;9.908;2022-12-18T01:22:40;-4.60;99.90
13684;DHT22;6914;53.552;9.908;2022-12-18T01:25:08;-4.50;99.90
13684;DHT22;6914;53.552;9.908;2022-12-18T01:27:36;-4.50;99.90
13684;DHT22;6914;53.552;9.908;2022-12-18T01:30:04;-4.60;99.90
13684;DHT22;6914;53.552;9.908;2022-12-18T01:32:32;-4.60;99.90
13684;DHT22;6914;53.552;9.908;2022-12-18T01:34:59;-4.60;99.90
13684;DHT22;6914;53.552;9.908;2022-12-18T01:37:26;-4.60;99.90
13684;DHT22;6914;53.552;9.908;2022-12-18T01:39:53;-4.60;99.90
13684;DHT22;6914;53.552;9.908;2022-12-18T01:42:21;-4.60;99.90
13684;DHT22;6914;53.552;9.908;2022-12-18T01:44:58;-4.60;99.90
13684;DHT22;6914;53.552;9.908;2022-12-18T01:47:29;-4.70;99.90
13684;DHT22;6914;53.552;9.908;2022-12-18T01:49:58;-4.60;99.90
13684;DHT22;6914;53.552;9.908;2022-12-18T01:52:28;-4.70;99.90
13684;DHT22;6914;53.552;9.908;2022-12-18T01:54:57;-4.60;99.90
13684;DHT22;6914;53.552;9.908;2022-12-18T01:57:25;-4.70;99.90
13684;DHT22;6914;53.552;9.908;2022-12-18T01:59:55;-4.70;99.90
13684;DHT22;6914;53.552;9.908;2022-12-18T02:02:23;-4.80;99.90
13684;DHT22;6914;53.552;9.908;2022-12-18T02:04:50;-4.70;99.90
13684;DHT22;6914;53.552;9.908;2022-12-18T02:07:24;-4.70;99.90
13684;DHT22;6914;53.552;9.908;2022-12-18T02:09:57;-4.70;99.90
13684;DHT22;6914;53.552;9.908;2022-12-18T02:12:30;-4.80;99.90
13684;DHT22;6914;53.552;9.908;2022-12-18T02:15:06;-4.40;99.90
13684;DHT22;6914;53.552;9.908;2022-12-18T02:17:40;-4.70;99.90
13684;DHT22;6914;53.552;9.908;2022-12-18T02:20:13;-6.30;99.90
13684;DHT22;6914;53.552;9.908;2022-12-18T02:22:53;-4.80;99.90
13684;DHT22;6914;53.552;9.908;2022-12-18T02:25:35;-4.80;99.90
13684;DHT22;6914;53.552;9.908;2022-12-18T02:28:09;-4.70;99.90
13684;DHT22;6914;53.552;9.908;2022-12-18T02:30:39;-4.80;99.90
13684;DHT22;6914;53.552;9.908;2022-12-18T02:33:08;-4.80;99.90
13684;DHT22;6914;53.552;9.908;2022-12-18T02:35:38;-4.80;99.90
13684;DHT22;6914;53.552;9.908;2022-12-18T02:38:07;-4.90;99.90
13684;DHT22;6914;53.552;9.908;2022-12-18T02:40:35;-5.00;99.90
13684;DHT22;6914;53.552;9.908;2022-12-18T02:43:08;-4.90;99.90
13684;DHT22;6914;53.552;9.908;2022-12-18T02:45:35;-4.90;99.90
13684;DHT22;6914;53.552;9.908;2022-12-18T02:48:02;-5.00;99.90
13684;DHT22;6914;53.552;9.908;2022-12-18T02:50:35;-5.10;99.90
13684;DHT22;6914;53.552;9.908;2022-12-18T02:53:12;-5.10;99.90
13684;DHT22;6914;53.552;9.908;2022-12-18T02:55:49;-5.20;99.90
13684;DHT22;6914;53.552;9.908;2022-12-18T02:58:28;-4.30;99.90
13684;DHT22;6914;53.552;9.908;2022-12-18T03:00:59;-5.20;99.90
13684;DHT22;6914;53.552;9.908;2022-12-18T03:03:31;-5.20;99.90
13684;DHT22;6914;53.552;9.908;2022-12-18T03:06:05;-5.30;99.90
13684;DHT22;6914;53.552;9.908;2022-12-18T03:08:36;-5.30;99.90
13684;DHT22;6914;53.552;9.908;2022-12-18T03:11:07;-5.80;99.90
13684;DHT22;6914;53.552;9.908;2022-12-18T03:13:38;-5.30;99.90
13684;DHT22;6914;53.552;9.908;2022-12-18T03:16:08;-4.00;99.90
13684;DHT22;6914;53.552;9.908;2022-12-18T03:18:38;-5.30;99.90
13684;DHT22;6914;53.552;9.908;2022-12-18T03:21:10;-5.30;99.90
13684;DHT22;6914;53.552;9.908;2022-12-18T03:23:42;-6.30;99.90
13684;DHT22;6914;53.552;9.908;2022-12-18T03:26:11;-5.30;99.90
13684;DHT22;6914;53.552;9.908;2022-12-18T03:28:45;-5.30;99.90
13684;DHT22;6914;53.552;9.908;2022-12-18T03:31:14;-5.30;99.90
13684;DHT22;6914;53.552;9.908;2022-12-18T03:33:44;-5.30;99.90
13684;DHT22;6914;53.552;9.908;2022-12-18T03:36:13;-5.30;99.90
13684;DHT22;6914;53.552;9.908;2022-12-18T03:38:40;-5.50;99.90
13684;DHT22;6914;53.552;9.908;2022-12-18T03:41:12;-5.50;99.90
13684;DHT22;6914;53.552;9.908;2022-12-18T03:43:52;-5.50;99.90
13684;DHT22;6914;53.552;9.908;2022-12-18T03:46:26;-5.50;99.90
13684;DHT22;6914;53.552;9.908;2022-12-18T03:48:59;-5.50;99.90
13684;DHT22;6914;53.552;9.908;2022-12-18T03:51:34;-5.50;99.90
13684;DHT22;6914;53.552;9.908;2022-12-18T03:54:05;-5.50;99.90
13684;DHT22;6914;53.552;9.908;2022-12-18T03:56:36;-5.50;99.90
13684;DHT22;6914;53.552;9.908;2022-12-18T03:59:06;-4.40;99.90
13684;DHT22;6914;53.552;9.908;2022-12-18T04:01:37;-5.40;99.90
13684;DHT22;6914;53.552;9.908;2022-12-18T04:04:05;-5.50;99.90
13684;DHT22;6914;53.552;9.908;2022-12-18T04:06:33;-5.50;99.90
13684;DHT22;6914;53.552;9.908;2022-12-18T04:09:01;-5.40;99.90
13684;DHT22;6914;53.552;9.908;2022-12-18T04:11:28;-4.80;99.90
13684;DHT22;6914;53.552;9.908;2022-12-18T04:13:56;-5.40;99.90
13684;DHT22;6914;53.552;9.908;2022-12-18T04:16:25;-5.50;99.90
13684;DHT22;6914;53.552;9.908;2022-12-18T04:18:53;-5.40;99.90
13684;DHT22;6914;53.552;9.908;2022-12-18T04:21:21;-5.40;99.90
13684;DHT22;6914;53.552;9.908;2022-12-18T04:23:48;-5.40;99.90
13684;DHT22;6914;53.552;9.908;2022-12-18T04:26:17;-5.40;99.90
13684;DHT22;6914;53.552;9.908;2022-12-18T04:28:44;-5.40;99.90
13684;DHT22;6914;53.552;9.908;2022-12-18T04:31:11;-5.40;99.90
13684;DHT22;6914;53.552;9.908;2022-12-18T04:33:39;-5.30;99.90
13684;DHT22;6914;53.552;9.908;2022-12-18T04:36:07;-5.40;99.90
13684;DHT22;6914;53.552;9.908;2022-12-18T04:38:34;-5.40;99.90
13684;DHT22;6914;53.552;9.908;2022-12-18T04:41:01;-5.40;99.90
13684;DHT22;6914;53.552;9.908;2022-12-18T04:43:28;-4.00;99.90
13684;DHT22;6914;53.552;9.908;2022-12-18T04:46:02;-5.50;99.90
13684;DHT22;6914;53.552;9.908;2022-12-18T04:48:29;-5.40;99.90
13684;DHT22;6914;53.552;9.908;2022-12-18T04:50:58;-5.40;99.90
13684;DHT22;6914;53.552;9.908;2022-12-18T04:53:25;-5.40;99.90
13684;DHT22;6914;53.552;9.908;2022-12-18T04:56:03;-5.40;99.90
13684;DHT22;6914;53.552;9.908;2022-12-18T04:58:30;-5.30;99.90
13684;DHT22;6914;53.552;9.908;2022-12-18T05:00:58;-5.30;99.90
13684;DHT22;6914;53.552;9.908;2022-12-18T05:03:25;-5.40;99.90
13684;DHT22;6914;53.552;9.908;2022-12-18T05:05:52;-5.40;99.90
13684;DHT22;6914;53.552;9.908;2022-12-18T05:08:20;-5.40;99.90
13684;DHT22;6914;53.552;9.908;2022-12-18T05:10:47;-5.40;99.90
13684;DHT22;6914;53.552;9.908;2022-12-18T05:13:14;-5.50;99.90
13684;DHT22;6914;53.552;9.908;2022-12-18T05:15:41;-5.50;99.90
13684;DHT22;6914;53.552;9.908;2022-12-18T05:18:08;-5.50;99.90
13684;DHT22;6914;53.552;9.908;2022-12-18T05:20:35;-5.60;99.90
13684;DHT22;6914;53.552;9.908;2022-12-18T05:23:02;-5.60;99.90
13684;DHT22;6914;53.552;9.908;2022-12-18T05:25:30;-5.70;99.90
13684;DHT22;6914;53.552;9.908;2022-12-18T05:27:58;-5.70;99.90
13684;DHT22;6914;53.552;9.908;2022-12-18T05:30:25;-5.80;99.90
13684;DHT22;6914;53.552;9.908;2022-12-18T05:32:53;-5.80;99.90
13684;DHT22;6914;53.552;9.908;2022-12-18T05:35:20;-5.80;99.90
13684;DHT22;6914;53.552;9.908;2022-12-18T05:37:46;-5.80;99.90
13684;DHT22;6914;53.552;9.908;2022-12-18T05:40:13;-5.90;99.90
13684;DHT22;6914;53.552;9.908;2022-12-18T05:42:42;-5.90;99.90
13684;DHT22;6914;53.552;9.908;2022-12-18T05:45:09;-6.00;99.90
13684;DHT22;6914;53.552;9.908;2022-12-18T05:47:36;-6.00;99.90
13684;DHT22;6914;53.552;9.908;2022-12-18T05:50:04;-5.90;99.90
13684;DHT22;6914;53.552;9.908;2022-12-18T05:52:31;-5.90;99.90
13684;DHT22;6914;53.552;9.908;2022-12-18T05:54:58;-6.00;99.90
13684;DHT22;6914;53.552;9.908;2022-12-18T05:57:25;-5.90;99.90
13684;DHT22;6914;53.552;9.908;2022-12-18T05:59:54;-6.00;99.90
13684;DHT22;6914;53.552;9.908;2022-12-18T06:02:20;-5.90;99.90
13684;DHT22;6914;53.552;9.908;2022-12-18T06:04:47;-5.90;99.90
13684;DHT22;6914;53.552;9.908;2022-12-18T06:07:14;-5.90;99.90
13684;DHT22;6914;53.552;9.908;2022-12-18T06:09:41;-5.80;99.90
13684;DHT22;6914;53.552;9.908;2022-12-18T06:12:11;-5.80;99.90
13684;DHT22;6914;53.552;9.908;2022-12-18T06:14:39;-5.80;99.90
13684;DHT22;6914;53.552;9.908;2022-12-18T06:17:07;-5.80;99.90
13684;DHT22;6914;53.552;9.908;2022-12-18T06:19:36;-5.80;99.90
13684;DHT22;6914;53.552;9.908;2022-12-18T06:22:03;-5.80;99.90
13684;DHT22;6914;53.552;9.908;2022-12-18T06:24:30;-5.80;99.90
13684;DHT22;6914;53.552;9.908;2022-12-18T06:26:57;-5.80;99.90
13684;DHT22;6914;53.552;9.908;2022-12-18T06:29:24;-5.80;99.90
13684;DHT22;6914;53.552;9.908;2022-12-18T06:31:51;-3.90;99.90
13684;DHT22;6914;53.552;9.908;2022-12-18T06:34:19;-4.10;99.90
13684;DHT22;6914;53.552;9.908;2022-12-18T06:36:46;-5.80;99.90
13684;DHT22;6914;53.552;9.908;2022-12-18T06:39:13;-5.90;99.90
13684;DHT22;6914;53.552;9.908;2022-12-18T06:41:40;-5.90;99.90
13684;DHT22;6914;53.552;9.908;2022-12-18T06:44:07;-5.90;99.90
13684;DHT22;6914;53.552;9.908;2022-12-18T06:46:34;-6.00;99.90
13684;DHT22;6914;53.552;9.908;2022-12-18T06:49:00;-6.00;99.90
13684;DHT22;6914;53.552;9.908;2022-12-18T06:51:29;-6.00;99.90
13684;DHT22;6914;53.552;9.908;2022-12-18T06:53:56;-6.00;99.90
13684;DHT22;6914;53.552;9.908;2022-12-18T06:56:23;-6.00;99.90
13684;DHT22;6914;53.552;9.908;2022-12-18T06:58:50;-6.00;99.90
13684;DHT22;6914;53.552;9.908;2022-12-18T07:01:17;-5.00;99.90
13684;DHT22;6914;53.552;9.908;2022-12-18T07:03:43;-5.80;99.90
13684;DHT22;6914;53.552;9.908;2022-12-18T07:06:15;-6.10;99.90
13684;DHT22;6914;53.552;9.908;2022-12-18T07:08:43;-6.00;99.90
13684;DHT22;6914;53.552;9.908;2022-12-18T07:11:10;-6.00;99.90
13684;DHT22;6914;53.552;9.908;2022-12-18T07:13:38;-6.00;99.90
13684;DHT22;6914;53.552;9.908;2022-12-18T07:16:07;-5.40;99.90
13684;DHT22;6914;53.552;9.908;2022-12-18T07:18:34;-6.00;99.90
13684;DHT22;6914;53.552;9.908;2022-12-18T07:21:04;-6.00;99.90
13684;DHT22;6914;53.552;9.908;2022-12-18T07:23:32;-6.10;99.90
13684;DHT22;6914;53.552;9.908;2022-12-18T07:26:02;-6.10;99.90
13684;DHT22;6914;53.552;9.908;2022-12-18T07:28:30;-6.10;99.90
13684;DHT22;6914;53.552;9.908;2022-12-18T07:30:57;-6.00;99.90
13684;DHT22;6914;53.552;9.908;2022-12-18T07:33:25;-6.10;99.90
13684;DHT22;6914;53.552;9.908;2022-12-18T07:35:52;-6.00;99.90
13684;DHT22;6914;53.552;9.908;2022-12-18T07:38:19;-5.60;99.90
13684;DHT22;6914;53.552;9.908;2022-12-18T07:40:46;-6.00;99.90
13684;DHT22;6914;53.552;9.908;2022-12-18T07:43:15;-5.30;99.90
13684;DHT22;6914;53.552;9.908;2022-12-18T07:45:42;-4.90;99.90
13684;DHT22;6914;53.552;9.908;2022-12-18T07:48:10;-5.90;99.90
13684;DHT22;6914;53.552;9.908;2022-12-18T07:50:37;-5.80;99.90
13684;DHT22;6914;53.552;9.908;2022-12-18T07:53:04;-5.80;99.90
13684;DHT22;6914;53.552;9.908;2022-12-18T07:55:31;-5.80;99.90
13684;DHT22;6914;53.552;9.908;2022-12-18T07:58:01;-6.10;99.90
13684;DHT22;6914;53.552;9.908;2022-12-18T08:00:30;-5.70;99.90
13684;DHT22;6914;53.552;9.908;2022-12-18T08:02:58;-5.50;99.90
13684;DHT22;6914;53.552;9.908;2022-12-18T08:05:26;-4.50;99.90
13684;DHT22;6914;53.552;9.908;2022-12-18T08:07:53;-5.60;99.90
13684;DHT22;6914;53.552;9.908;2022-12-18T08:10:21;-5.70;99.90
13684;DHT22;6914;53.552;9.908;2022-12-18T08:12:49;-5.70;99.90
13684;DHT22;6914;53.552;9.908;2022-12-18T08:15:16;-5.60;99.90
13684;DHT22;6914;53.552;9.908;2022-12-18T08:17:44;-5.60;99.90
13684;DHT22;6914;53.552;9.908;2022-12-18T08:20:11;-5.60;99.90
13684;DHT22;6914;53.552;9.908;2022-12-18T08:22:39;-4.10;99.90
13684;DHT22;6914;53.552;9.908;2022-12-18T08:25:07;-5.50;99.90
13684;DHT22;6914;53.552;9.908;2022-12-18T08:27:34;-5.50;99.90
13684;DHT22;6914;53.552;9.908;2022-12-18T08:30:02;-5.80;99.90
13684;DHT22;6914;53.552;9.908;2022-12-18T08:32:29;-5.50;99.90
13684;DHT22;6914;53.552;9.908;2022-12-18T08:34:59;-5.50;99.90
13684;DHT22;6914;53.552;9.908;2022-12-18T08:37:26;-5.40;99.90
13684;DHT22;6914;53.552;9.908;2022-12-18T08:39:53;-5.30;99.90
13684;DHT22;6914;53.552;9.908;2022-12-18T08:42:20;-5.10;99.90
13684;DHT22;6914;53.552;9.908;2022-12-18T08:45:05;-5.30;99.90
13684;DHT22;6914;53.552;9.908;2022-12-18T08:47:32;-5.30;99.90
13684;DHT22;6914;53.552;9.908;2022-12-18T08:50:01;-5.20;99.90
13684;DHT22;6914;53.552;9.908;2022-12-18T08:52:31;-4.90;99.90
13684;DHT22;6914;53.552;9.908;2022-12-18T08:54:58;-5.00;99.90
13684;DHT22;6914;53.552;9.908;2022-12-18T08:57:25;-4.90;99.90
13684;DHT22;6914;53.552;9.908;2022-12-18T08:59:52;-4.80;99.90
13684;DHT22;6914;53.552;9.908;2022-12-18T09:02:19;-4.80;99.90
13684;DHT22;6914;53.552;9.908;2022-12-18T09:04:47;-3.10;99.90
13684;DHT22;6914;53.552;9.908;2022-12-18T09:07:15;-4.20;99.90
13684;DHT22;6914;53.552;9.908;2022-12-18T09:09:43;-4.30;99.90
13684;DHT22;6914;53.552;9.908;2022-12-18T09:12:09;-4.30;99.90
13684;DHT22;6914;53.552;9.908;2022-12-18T09:14:36;-3.90;99.90
13684;DHT22;6914;53.552;9.908;2022-12-18T09:17:03;-3.80;99.90
13684;DHT22;6914;53.552;9.908;2022-12-18T09:19:30;-3.60;99.90
13684;DHT22;6914;53.552;9.908;2022-12-18T09:21:57;-3.40;99.90
13684;DHT22;6914;53.552;9.908;2022-12-18T09:24:26;-3.30;99.90
13684;DHT22;6914;53.552;9.908;2022-12-18T09:26:53;-3.00;99.90
13684;DHT22;6914;53.552;9.908;2022-12-18T09:29:21;-2.90;99.90
13684;DHT22;6914;53.552;9.908;2022-12-18T09:31:48;-2.70;99.90
13684;DHT22;6914;53.552;9.908;2022-12-18T09:34:15;-2.50;99.90
13684;DHT22;6914;53.552;9.908;2022-12-18T09:36:42;-2.40;99.90
13684;DHT22;6914;53.552;9.908;2022-12-18T09:39:09;-2.60;99.90
13684;DHT22;6914;53.552;9.908;2022-12-18T09:41:42;-2.20;99.90
13684;DHT22;6914;53.552;9.908;2022-12-18T09:44:23;-2.20;99.90
13684;DHT22;6914;53.552;9.908;2022-12-18T09:46:55;-1.80;99.90
13684;DHT22;6914;53.552;9.908;2022-12-18T09:49:27;-1.40;99.90
13684;DHT22;6914;53.552;9.908;2022-12-18T09:51:59;-1.20;99.90
13684;DHT22;6914;53.552;9.908;2022-12-18T09:54:32;-1.10;99.90
13684;DHT22;6914;53.552;9.908;2022-12-18T09:57:02;-0.60;99.90
13684;DHT22;6914;53.552;9.908;2022-12-18T09:59:33;-0.40;99.90
13684;DHT22;6914;53.552;9.908;2022-12-18T10:02:13;-0.20;99.90
13684;DHT22;6914;53.552;9.908;2022-12-18T10:04:40;0.10;99.90
13684;DHT22;6914;53.552;9.908;2022-12-18T10:07:13;0.20;99.90
13684;DHT22;6914;53.552;9.908;2022-12-18T10:09:46;0.00;99.90
13684;DHT22;6914;53.552;9.908;2022-12-18T10:12:23;-0.10;99.90
13684;DHT22;6914;53.552;9.908;2022-12-18T10:14:56;-0.10;99.90
13684;DHT22;6914;53.552;9.908;2022-12-18T10:17:31;-0.10;99.90
13684;DHT22;6914;53.552;9.908;2022-12-18T10:20:02;-0.20;99.90
13684;DHT22;6914;53.552;9.908;2022-12-18T10:22:40;-0.60;99.90
13684;DHT22;6914;53.552;9.908;2022-12-18T10:25:20;-0.30;99.90
13684;DHT22;6914;53.552;9.908;2022-12-18T10:27:52;0.00;99.90
13684;DHT22;6914;53.552;9.908;2022-12-18T10:30:22;0.10;99.90
13684;DHT22;6914;53.552;9.908;2022-12-18T10:32:49;0.20;99.90
13684;DHT22;6914;53.552;9.908;2022-12-18T10:35:19;0.20;99.90
13684;DHT22;6914;53.552;9.908;2022-12-18T10:38:05;-0.20;99.90
13684;DHT22;6914;53.552;9.908;2022-12-18T10:40:32;-0.40;99.90
13684;DHT22;6914;53.552;9.908;2022-12-18T10:43:12;-0.70;99.90
13684;DHT22;6914;53.552;9.908;2022-12-18T10:45:40;-0.90;99.90
13684;DHT22;6914;53.552;9.908;2022-12-18T10:48:18;-0.70;99.90
13684;DHT22;6914;53.552;9.908;2022-12-18T10:50:48;-0.50;99.90
13684;DHT22;6914;53.552;9.908;2022-12-18T10:53:20;-0.30;99.90
13684;DHT22;6914;53.552;9.908;2022-12-18T10:55:48;0.00;99.90
13684;DHT22;6914;53.552;9.908;2022-12-18T10:58:24;0.10;99.90
13684;DHT22;6914;53.552;9.908;2022-12-18T11:01:09;0.40;99.90
13684;DHT22;6914;53.552;9.908;2022-12-18T11:03:38;0.40;99.90
13684;DHT22;6914;53.552;9.908;2022-12-18T11:06:08;0.80;99.90
13684;DHT22;6914;53.552;9.908;2022-12-18T11:08:36;1.30;99.90
13684;DHT22;6914;53.552;9.908;2022-12-18T11:11:07;0.90;99.90
13684;DHT22;6914;53.552;9.908;2022-12-18T11:13:52;0.50;99.90
13684;DHT22;6914;53.552;9.908;2022-12-18T11:16:22;0.70;99.90
13684;DHT22;6914;53.552;9.908;2022-12-18T11:18:50;0.50;99.90
13684;DHT22;6914;53.552;9.908;2022-12-18T11:21:17;0.50;99.90
13684;DHT22;6914;53.552;9.908;2022-12-18T11:23:47;0.20;99.90
13684;DHT22;6914;53.552;9.908;2022-12-18T11:26:15;-0.10;99.90
13684;DHT22;6914;53.552;9.908;2022-12-18T11:28:45;-0.20;99.90
13684;DHT22;6914;53.552;9.908;2022-12-18T11:31:24;-0.40;99.90
13684;DHT22;6914;53.552;9.908;2022-12-18T11:34:04;-0.40;99.90
13684;DHT22;6914;53.552;9.908;2022-12-18T11:36:37;-0.90;99.90
13684;DHT22;6914;53.552;9.908;2022-12-18T11:39:12;-1.00;99.90
13684;DHT22;6914;53.552;9.908;2022-12-18T11:41:47;-1.00;99.90
13684;DHT22;6914;53.552;9.908;2022-12-18T11:44:45;-1.10;99.90
13684;DHT22;6914;53.552;9.908;2022-12-18T11:47:21;-0.90;99.90
13684;DHT22;6914;53.552;9.908;2022-12-18T11:49:52;-0.20;99.90
13684;DHT22;6914;53.552;9.908;2022-12-18T11:52:21;0.10;99.90
13684;DHT22;6914;53.552;9.908;2022-12-18T11:54:51;0.40;99.90
13684;DHT22;6914;53.552;9.908;2022-12-18T11:57:29;0.60;99.90
13684;DHT22;6914;53.552;9.908;2022-12-18T12:00:09;0.70;99.90
13684;DHT22;6914;53.552;9.908;2022-12-18T12:02:47;0.30;99.90
13684;DHT22;6914;53.552;9.908;2022-12-18T12:08:08;0.00;99.90
13684;DHT22;6914;53.552;9.908;2022-12-18T12:10:43;-0.10;99.90
13684;DHT22;6914;53.552;9.908;2022-12-18T12:13:34;-0.60;99.90
13684;DHT22;6914;53.552;9.908;2022-12-18T12:16:15;-0.80;99.90
13684;DHT22;6914;53.552;9.908;2022-12-18T12:19:02;-1.10;99.90
13684;DHT22;6914;53.552;9.908;2022-12-18T12:21:38;-1.20;99.90
13684;DHT22;6914;53.552;9.908;2022-12-18T12:24:18;-1.30;99.90
13684;DHT22;6914;53.552;9.908;2022-12-18T12:26:56;-1.50;99.90
13684;DHT22;6914;53.552;9.908;2022-12-18T12:29:36;-1.60;99.90
13684;DHT22;6914;53.552;9.908;2022-12-18T12:32:17;-1.60;99.90
13684;DHT22;6914;53.552;9.908;2022-12-18T12:34:54;-1.70;99.90
13684;DHT22;6914;53.552;9.908;2022-12-18T12:37:32;-1.80;99.90
13684;DHT22;6914;53.552;9.908;2022-12-18T12:40:03;-1.80;99.90
13684;DHT22;6914;53.552;9.908;2022-12-18T12:42:33;-1.80;99.90
13684;DHT22;6914;53.552;9.908;2022-12-18T12:45:24;-1.60;99.90
13684;DHT22;6914;53.552;9.908;2022-12-18T12:47:57;-1.20;99.90
13684;DHT22;6914;53.552;9.908;2022-12-18T12:50:26;-1.50;99.90
13684;DHT22;6914;53.552;9.908;2022-12-18T12:52:55;-1.40;99.90
13684;DHT22;6914;53.552;9.908;2022-12-18T12:55:24;-1.90;99.90
13684;DHT22;6914;53.552;9.908;2022-12-18T12:57:59;-1.50;99.90
13684;DHT22;6914;53.552;9.908;2022-12-18T13:00:31;-1.50;99.90
13684;DHT22;6914;53.552;9.908;2022-12-18T13:03:09;-1.60;99.90
13684;DHT22;6914;53.552;9.908;2022-12-18T13:05:42;-1.60;99.90
13684;DHT22;6914;53.552;9.908;2022-12-18T13:08:12;-1.70;99.90
13684;DHT22;6914;53.552;9.908;2022-12-18T13:10:48;-1.80;99.90
13684;DHT22;6914;53.552;9.908;2022-12-18T13:13:16;-1.70;99.90
13684;DHT22;6914;53.552;9.908;2022-12-18T13:15:44;-1.50;99.90
13684;DHT22;6914;53.552;9.908;2022-12-18T13:18:18;-1.50;99.90
13684;DHT22;6914;53.552;9.908;2022-12-18T13:20:47;-1.30;99.90
13684;DHT22;6914;53.552;9.908;2022-12-18T13:23:29;-1.40;99.90
13684;DHT22;6914;53.552;9.908;2022-12-18T13:25:57;-1.70;99.90
13684;DHT22;6914;53.552;9.908;2022-12-18T13:28:51;-1.80;99.90
13684;DHT22;6914;53.552;9.908;2022-12-18T13:34:36;-1.80;99.90
13684;DHT22;6914;53.552;9.908;2022-12-18T13:43:23;-2.30;99.90
13684;DHT22;6914;53.552;9.908;2022-12-18T13:45:59;-2.40;99.90
13684;DHT22;6914;53.552;9.908;2022-12-18T13:48:30;-2.40;99.90
13684;DHT22;6914;53.552;9.908;2022-12-18T13:51:05;-2.40;99.90
13684;DHT22;6914;53.552;9.908;2022-12-18T13:53:36;-2.10;99.90
13684;DHT22;6914;53.552;9.908;2022-12-18T13:56:05;-2.60;99.90
13684;DHT22;6914;53.552;9.908;2022-12-18T13:58:33;-2.70;99.90
13684;DHT22;6914;53.552;9.908;2022-12-18T14:01:00;-2.70;99.90
13684;DHT22;6914;53.552;9.908;2022-12-18T14:03:30;-2.70;99.90
13684;DHT22;6914;53.552;9.908;2022-12-18T14:06:03;-2.70;99.90
13684;DHT22;6914;53.552;9.908;2022-12-18T14:08:41;-2.00;99.90
13684;DHT22;6914;53.552;9.908;2022-12-18T14:11:18;-2.80;99.90
13684;DHT22;6914;53.552;9.908;2022-12-18T14:13:46;-2.90;99.90
13684;DHT22;6914;53.552;9.908;2022-12-18T14:16:15;-2.90;99.90
13684;DHT22;6914;53.552;9.908;2022-12-18T14:18:45;-2.90;99.90
13684;DHT22;6914;53.552;9.908;2022-12-18T14:21:21;-2.70;99.90
13684;DHT22;6914;53.552;9.908;2022-12-18T14:24:03;-3.00;99.90
13684;DHT22;6914;53.552;9.908;2022-12-18T14:26:30;-3.00;99.90
13684;DHT22;6914;53.552;9.908;2022-12-18T14:29:00;-3.10;99.90
13684;DHT22;6914;53.552;9.908;2022-12-18T14:31:29;-3.10;99.90
13684;DHT22;6914;53.552;9.908;2022-12-18T14:33:57;-3.10;99.90
13684;DHT22;6914;53.552;9.908;2022-12-18T14:36:27;-3.10;99.90
13684;DHT22;6914;53.552;9.908;2022-12-18T14:38:56;-3.20;99.90
13684;DHT22;6914;53.552;9.908;2022-12-18T14:41:23;-3.20;99.90
13684;DHT22;6914;53.552;9.908;2022-12-18T14:43:53;-3.30;99.90
13684;DHT22;6914;53.552;9.908;2022-12-18T14:46:30;-3.30;99.90
13684;DHT22;6914;53.552;9.908;2022-12-18T14:48:58;-3.60;99.90
13684;DHT22;6914;53.552;9.908;2022-12-18T14:51:27;-3.30;99.90
13684;DHT22;6914;53.552;9.908;2022-12-18T14:53:56;-3.30;99.90
13684;DHT22;6914;53.552;9.908;2022-12-18T14:56:25;-3.40;99.90
13684;DHT22;6914;53.552;9.908;2022-12-18T14:58:54;-3.30;99.90
13684;DHT22;6914;53.552;9.908;2022-12-18T15:01:25;-1.90;99.90
13684;DHT22;6914;53.552;9.908;2022-12-18T15:03:54;-3.40;99.90
13684;DHT22;6914;53.552;9.908;2022-12-18T15:06:30;-3.40;99.90
13684;DHT22;6914;53.552;9.908;2022-12-18T15:08:58;-3.50;99.90
13684;DHT22;6914;53.552;9.908;2022-12-18T15:11:28;-3.40;99.90
13684;DHT22;6914;53.552;9.908;2022-12-18T15:13:57;-3.50;99.90
13684;DHT22;6914;53.552;9.908;2022-12-18T15:16:24;-3.60;99.90
13684;DHT22;6914;53.552;9.908;2022-12-18T15:18:53;-3.60;99.90
13684;DHT22;6914;53.552;9.908;2022-12-18T15:21:21;-3.60;99.90
13684;DHT22;6914;53.552;9.908;2022-12-18T15:23:50;-3.60;99.90
13684;DHT22;6914;53.552;9.908;2022-12-18T15:26:19;-3.60;99.90
13684;DHT22;6914;53.552;9.908;2022-12-18T15:28:49;-1.90;99.90
13684;DHT22;6914;53.552;9.908;2022-12-18T15:31:28;-3.60;99.90
13684;DHT22;6914;53.552;9.908;2022-12-18T15:34:11;-3.60;99.90
13684;DHT22;6914;53.552;9.908;2022-12-18T15:36:39;-5.20;99.90
13684;DHT22;6914;53.552;9.908;2022-12-18T15:39:11;-5.20;99.90
13684;DHT22;6914;53.552;9.908;2022-12-18T15:41:38;-3.60;99.90
13684;DHT22;6914;53.552;9.908;2022-12-18T15:46:36;-3.60;99.90
13684;DHT22;6914;53.552;9.908;2022-12-18T15:49:03;-3.50;99.90
13684;DHT22;6914;53.552;9.908;2022-12-18T15:51:33;-3.60;99.90
13684;DHT22;6914;53.552;9.908;2022-12-18T15:54:03;-3.50;99.90
13684;DHT22;6914;53.552;9.908;2022-12-18T15:56:32;-3.50;99.90
13684;DHT22;6914;53.552;9.908;2022-12-18T15:59:23;-3.60;99.90
13684;DHT22;6914;53.552;9.908;2022-12-18T16:01:51;-2.90;99.90
13684;DHT22;6914;53.552;9.908;2022-12-18T16:04:21;-3.50;99.90
13684;DHT22;6914;53.552;9.908;2022-12-18T16:06:49;-3.60;99.90
13684;DHT22;6914;53.552;9.908;2022-12-18T16:09:17;-3.60;99.90
13684;DHT22;6914;53.552;9.908;2022-12-18T16:11:45;-3.60;99.90
13684;DHT22;6914;53.552;9.908;2022-12-18T16:14:17;-3.60;99.90
13684;DHT22;6914;53.552;9.908;2022-12-18T16:16:45;-3.60;99.90
13684;DHT22;6914;53.552;9.908;2022-12-18T16:19:12;-3.50;99.90
13684;DHT22;6914;53.552;9.908;2022-12-18T16:21:39;-3.60;99.90